sensor_id;sensor_type;location;lat;lon;timestamp;pressure;altitude;pressure_sealevel;temperature;humidity
22550;BME280;11441;57.164;-2.120;2022-09-12T00:00:04;100040.72;;;14.20;100.00
22550;BME280;11441;57.164;-2.120;2022-09-12T00:02:37;100038.75;;;14.35;100.00
22550;BME280;11441;57.164;-2.120;2022-09-12T00:05:04;100031.22;;;14.25;100.00
22550;BME280;11441;57.164;-2.120;2022-09-12T00:07:33;100028.44;;;14.32;100.00
22550;BME280;11441;57.164;-2.120;2022-09-12T00:09:59;100032.78;;;14.22;100.00
22550;BME280;11441;57.164;-2.120;2022-09-12T00:12:26;100018.16;;;14.32;100.00
22550;BME280;11441;57.164;-2.120;2022-09-12T00:15:12;100013.38;;;14.37;100.00
22550;BME280;11441;57.164;-2.120;2022-09-12T00:17:38;100012.22;;;14.38;100.00
22550;BME280;11441;57.164;-2.120;2022-09-12T00:20:07;100001.13;;;14.34;100.00
22550;BME280;11441;57.164;-2.120;2022-09-12T00:22:35;100003.13;;;14.37;100.00
22550;BME280;11441;57.164;-2.120;2022-09-12T00:25:03;99987.28;;;14.38;100.00
22550;BME280;11441;57.164;-2.120;2022-09-12T00:27:49;99979.75;;;14.38;100.00
22550;BME280;11441;57.164;-2.120;2022-09-12T00:30:16;99983.31;;;14.42;100.00
22550;BME280;11441;57.164;-2.120;2022-09-12T00:32:43;99975.00;;;14.49;100.00
22550;BME280;11441;57.164;-2.120;2022-09-12T00:35:10;99965.47;;;14.50;100.00
22550;BME280;11441;57.164;-2.120;2022-09-12T00:37:37;99960.75;;;14.55;100.00
22550;BME280;11441;57.164;-2.120;2022-09-12T00:40:04;99959.53;;;14.56;100.00
22550;BME280;11441;57.164;-2.120;2022-09-12T00:42:31;99952.47;;;14.33;100.00
22550;BME280;11441;57.164;-2.120;2022-09-12T00:44:58;99946.91;;;14.40;100.00
22550;BME280;11441;57.164;-2.120;2022-09-12T00:47:28;99934.66;;;14.41;100.00
22550;BME280;11441;57.164;-2.120;2022-09-12T00:50:08;99924.31;;;14.49;100.00
22550;BME280;11441;57.164;-2.120;2022-09-12T00:53:02;99921.16;;;14.65;100.00
22550;BME280;11441;57.164;-2.120;2022-09-12T00:55:36;99908.78;;;14.80;100.00
22550;BME280;11441;57.164;-2.120;2022-09-12T00:58:17;99894.56;;;14.78;100.00
22550;BME280;11441;57.164;-2.120;2022-09-12T01:00:46;99897.38;;;14.67;100.00
22550;BME280;11441;57.164;-2.120;2022-09-12T01:03:15;99893.38;;;14.79;100.00
22550;BME280;11441;57.164;-2.120;2022-09-12T01:05:47;99883.50;;;14.75;100.00
22550;BME280;11441;57.164;-2.120;2022-09-12T01:08:19;99885.06;;;14.76;100.00
22550;BME280;11441;57.164;-2.120;2022-09-12T01:10:47;99883.09;;;14.73;100.00
22550;BME280;11441;57.164;-2.120;2022-09-12T01:13:14;99882.66;;;14.85;100.00
22550;BME280;11441;57.164;-2.120;2022-09-12T01:15:41;99871.97;;;14.83;100.00
22550;BME280;11441;57.164;-2.120;2022-09-12T01:18:19;99869.16;;;14.90;100.00
22550;BME280;11441;57.164;-2.120;2022-09-12T01:26:33;99846.91;;;15.05;100.00
22550;BME280;11441;57.164;-2.120;2022-09-12T01:34:54;99824.38;;;14.96;100.00
22550;BME280;11441;57.164;-2.120;2022-09-12T01:37:53;99818.44;;;14.94;100.00
22550;BME280;11441;57.164;-2.120;2022-09-12T01:40:32;99822.44;;;14.93;100.00
22550;BME280;11441;57.164;-2.120;2022-09-12T01:43:32;99827.16;;;14.92;100.00
22550;BME280;11441;57.164;-2.120;2022-09-12T01:46:34;99820.41;;;14.97;100.00
22550;BME280;11441;57.164;-2.120;2022-09-12T01:51:40;99797.44;;;14.96;100.00
22550;BME280;11441;57.164;-2.120;2022-09-12T01:54:18;99789.13;;;14.96;100.00
22550;BME280;11441;57.164;-2.120;2022-09-12T01:56:52;99796.59;;;15.03;100.00
22550;BME280;11441;57.164;-2.120;2022-09-12T01:59:43;99789.84;;;15.04;100.00
22550;BME280;11441;57.164;-2.120;2022-09-12T02:02:21;99794.97;;;15.09;100.00
22550;BME280;11441;57.164;-2.120;2022-09-12T02:04:59;99802.19;;;14.96;100.00
22550;BME280;11441;57.164;-2.120;2022-09-12T02:07:35;99798.97;;;15.01;100.00
22550;BME280;11441;57.164;-2.120;2022-09-12T02:10:11;99792.56;;;15.11;100.00
22550;BME280;11441;57.164;-2.120;2022-09-12T02:13:11;99794.63;;;15.03;100.00
22550;BME280;11441;57.164;-2.120;2022-09-12T02:15:44;99794.09;;;15.19;100.00
22550;BME280;11441;57.164;-2.120;2022-09-12T02:18:15;99782.63;;;15.17;100.00
22550;BME280;11441;57.164;-2.120;2022-09-12T02:21:03;99785.38;;;15.21;100.00
22550;BME280;11441;57.164;-2.120;2022-09-12T02:23:31;99771.50;;;15.21;100.00
22550;BME280;11441;57.164;-2.120;2022-09-12T02:26:04;99769.50;;;15.21;100.00
22550;BME280;11441;57.164;-2.120;2022-09-12T02:28:52;99771.84;;;15.26;100.00
22550;BME280;11441;57.164;-2.120;2022-09-12T02:39:28;99755.59;;;15.28;100.00
22550;BME280;11441;57.164;-2.120;2022-09-12T02:41:57;99748.41;;;15.35;100.00
22550;BME280;11441;57.164;-2.120;2022-09-12T02:44:26;99759.56;;;15.27;100.00
22550;BME280;11441;57.164;-2.120;2022-09-12T02:47:26;99754.50;;;15.19;100.00
22550;BME280;11441;57.164;-2.120;2022-09-12T02:49:55;99754.88;;;15.21;100.00
22550;BME280;11441;57.164;-2.120;2022-09-12T02:52:22;99756.81;;;15.24;100.00
22550;BME280;11441;57.164;-2.120;2022-09-12T02:54:50;99752.84;;;15.25;100.00
22550;BME280;11441;57.164;-2.120;2022-09-12T02:57:19;99741.31;;;15.30;100.00
22550;BME280;11441;57.164;-2.120;2022-09-12T02:59:51;99730.72;;;15.18;100.00
22550;BME280;11441;57.164;-2.120;2022-09-12T03:05:11;99724.69;;;15.26;100.00
22550;BME280;11441;57.164;-2.120;2022-09-12T03:11:04;99716.72;;;15.32;100.00
22550;BME280;11441;57.164;-2.120;2022-09-12T03:24:50;99707.34;;;15.19;100.00
22550;BME280;11441;57.164;-2.120;2022-09-12T03:27:26;99703.19;;;15.38;100.00
22550;BME280;11441;57.164;-2.120;2022-09-12T03:29:56;99705.31;;;15.23;100.00
22550;BME280;11441;57.164;-2.120;2022-09-12T03:32:43;99716.00;;;15.24;100.00
22550;BME280;11441;57.164;-2.120;2022-09-12T03:35:12;99715.59;;;15.26;100.00
22550;BME280;11441;57.164;-2.120;2022-09-12T03:37:39;99715.22;;;15.20;100.00
22550;BME280;11441;57.164;-2.120;2022-09-12T03:40:07;99709.72;;;15.17;100.00
22550;BME280;11441;57.164;-2.120;2022-09-12T03:42:34;99713.34;;;15.14;100.00
22550;BME280;11441;57.164;-2.120;2022-09-12T03:45:19;99718.41;;;15.22;100.00
22550;BME280;11441;57.164;-2.120;2022-09-12T03:47:46;99711.38;;;15.11;100.00
22550;BME280;11441;57.164;-2.120;2022-09-12T03:50:13;99702.31;;;15.03;100.00
22550;BME280;11441;57.164;-2.120;2022-09-12T03:52:40;99707.56;;;14.94;100.00
22550;BME280;11441;57.164;-2.120;2022-09-12T03:55:07;99710.69;;;14.96;100.00
22550;BME280;11441;57.164;-2.120;2022-09-12T03:57:35;99699.19;;;14.97;100.00
22550;BME280;11441;57.164;-2.120;2022-09-12T04:00:04;99703.13;;;15.03;100.00
22550;BME280;11441;57.164;-2.120;2022-09-12T04:02:37;99699.22;;;14.94;100.00
22550;BME280;11441;57.164;-2.120;2022-09-12T04:05:05;99699.97;;;14.98;100.00
22550;BME280;11441;57.164;-2.120;2022-09-12T04:07:32;99699.19;;;14.97;100.00
22550;BME280;11441;57.164;-2.120;2022-09-12T04:09:59;99708.28;;;14.98;100.00
22550;BME280;11441;57.164;-2.120;2022-09-12T04:12:25;99708.28;;;14.98;100.00
22550;BME280;11441;57.164;-2.120;2022-09-12T04:14:52;99703.16;;;15.00;100.00
22550;BME280;11441;57.164;-2.120;2022-09-12T04:17:20;99708.75;;;14.93;100.00
22550;BME280;11441;57.164;-2.120;2022-09-12T04:20:05;99708.75;;;14.93;100.00
22550;BME280;11441;57.164;-2.120;2022-09-12T04:22:33;99708.72;;;14.96;100.00
22550;BME280;11441;57.164;-2.120;2022-09-12T04:24:59;99704.34;;;14.99;100.00
22550;BME280;11441;57.164;-2.120;2022-09-12T04:27:26;99710.59;;;15.10;100.00
22550;BME280;11441;57.164;-2.120;2022-09-12T04:29:54;99715.84;;;14.97;100.00
22550;BME280;11441;57.164;-2.120;2022-09-12T04:32:38;99723.72;;;15.02;100.00
22550;BME280;11441;57.164;-2.120;2022-09-12T04:35:06;99727.38;;;14.88;100.00
22550;BME280;11441;57.164;-2.120;2022-09-12T04:37:33;99722.63;;;14.93;100.00
22550;BME280;11441;57.164;-2.120;2022-09-12T04:40:00;99724.69;;;14.81;100.00
22550;BME280;11441;57.164;-2.120;2022-09-12T04:42:28;99732.16;;;14.88;100.00
22550;BME280;11441;57.164;-2.120;2022-09-12T04:44:55;99716.72;;;14.87;100.00
22550;BME280;11441;57.164;-2.120;2022-09-12T04:47:22;99729.47;;;14.77;100.00
22550;BME280;11441;57.164;-2.120;2022-09-12T04:49:48;99725.06;;;14.83;100.00
22550;BME280;11441;57.164;-2.120;2022-09-12T04:52:16;99730.28;;;14.74;100.00
22550;BME280;11441;57.164;-2.120;2022-09-12T04:54:43;99727.94;;;14.69;100.00
22550;BME280;11441;57.164;-2.120;2022-09-12T04:57:10;99739.03;;;14.65;100.00
22550;BME280;11441;57.164;-2.120;2022-09-12T04:59:37;99738.69;;;14.56;100.00
22550;BME280;11441;57.164;-2.120;2022-09-12T05:02:04;99733.56;;;14.55;100.00
22550;BME280;11441;57.164;-2.120;2022-09-12T05:04:31;99742.66;;;14.51;100.00
22550;BME280;11441;57.164;-2.120;2022-09-12T05:06:58;99741.91;;;14.47;100.00
22550;BME280;11441;57.164;-2.120;2022-09-12T05:09:25;99739.50;;;14.49;100.00
22550;BME280;11441;57.164;-2.120;2022-09-12T05:11:52;99749.41;;;14.47;100.00
22550;BME280;11441;57.164;-2.120;2022-09-12T05:14:34;99754.97;;;14.43;100.00
22550;BME280;11441;57.164;-2.120;2022-09-12T05:17:02;99749.06;;;14.41;100.00
22550;BME280;11441;57.164;-2.120;2022-09-12T05:19:30;99753.41;;;14.42;100.00
22550;BME280;11441;57.164;-2.120;2022-09-12T05:21:58;99753.41;;;14.42;100.00
22550;BME280;11441;57.164;-2.120;2022-09-12T05:24:43;99757.34;;;14.45;100.00
22550;BME280;11441;57.164;-2.120;2022-09-12T05:27:16;99755.75;;;14.47;100.00
22550;BME280;11441;57.164;-2.120;2022-09-12T05:29:42;99754.59;;;14.41;100.00
22550;BME280;11441;57.164;-2.120;2022-09-12T05:32:09;99755.00;;;14.36;100.00
22550;BME280;11441;57.164;-2.120;2022-09-12T05:34:38;99758.97;;;14.39;100.00
22550;BME280;11441;57.164;-2.120;2022-09-12T05:37:05;99765.69;;;14.38;100.00
22550;BME280;11441;57.164;-2.120;2022-09-12T05:39:32;99769.63;;;14.40;100.00
22550;BME280;11441;57.164;-2.120;2022-09-12T05:45:40;99787.84;;;14.41;100.00
22550;BME280;11441;57.164;-2.120;2022-09-12T05:48:07;99791.41;;;14.38;100.00
22550;BME280;11441;57.164;-2.120;2022-09-12T05:50:34;99798.09;;;14.48;100.00
22550;BME280;11441;57.164;-2.120;2022-09-12T05:53:01;99792.13;;;14.53;100.00
22550;BME280;11441;57.164;-2.120;2022-09-12T05:55:28;99799.25;;;14.50;100.00
22550;BME280;11441;57.164;-2.120;2022-09-12T05:57:56;99808.34;;;14.55;100.00
22550;BME280;11441;57.164;-2.120;2022-09-12T06:00:23;99806.78;;;14.50;100.00
22550;BME280;11441;57.164;-2.120;2022-09-12T06:02:53;99802.81;;;14.62;100.00
22550;BME280;11441;57.164;-2.120;2022-09-12T06:05:19;99809.53;;;14.53;100.00
22550;BME280;11441;57.164;-2.120;2022-09-12T06:07:46;99800.53;;;14.39;100.00
22550;BME280;11441;57.164;-2.120;2022-09-12T06:13:18;99808.75;;;14.53;100.00
22550;BME280;11441;57.164;-2.120;2022-09-12T06:16:20;99813.91;;;14.55;100.00
22550;BME280;11441;57.164;-2.120;2022-09-12T06:22:11;99810.31;;;14.54;100.00
22550;BME280;11441;57.164;-2.120;2022-09-12T06:24:39;99815.03;;;14.64;100.00
22550;BME280;11441;57.164;-2.120;2022-09-12T06:27:06;99816.25;;;14.63;100.00
22550;BME280;11441;57.164;-2.120;2022-09-12T06:29:32;99816.66;;;14.62;100.00
22550;BME280;11441;57.164;-2.120;2022-09-12T06:31:59;99814.28;;;14.57;100.00
22550;BME280;11441;57.164;-2.120;2022-09-12T06:34:27;99813.09;;;14.61;100.00
22550;BME280;11441;57.164;-2.120;2022-09-12T06:36:54;99806.72;;;14.64;100.00
22550;BME280;11441;57.164;-2.120;2022-09-12T06:39:21;99806.34;;;14.62;100.00
22550;BME280;11441;57.164;-2.120;2022-09-12T06:41:50;99815.44;;;14.70;100.00
22550;BME280;11441;57.164;-2.120;2022-09-12T06:44:47;99812.63;;;14.74;100.00
22550;BME280;11441;57.164;-2.120;2022-09-12T06:47:15;99809.84;;;14.77;100.00
22550;BME280;11441;57.164;-2.120;2022-09-12T06:49:42;99812.22;;;14.79;100.00
22550;BME280;11441;57.164;-2.120;2022-09-12T06:52:09;99818.91;;;14.81;100.00
22550;BME280;11441;57.164;-2.120;2022-09-12T06:54:36;99813.03;;;14.72;100.00
22550;BME280;11441;57.164;-2.120;2022-09-12T06:57:03;99821.72;;;14.78;100.00
22550;BME280;11441;57.164;-2.120;2022-09-12T06:59:29;99824.47;;;14.81;100.00
22550;BME280;11441;57.164;-2.120;2022-09-12T07:01:57;99836.28;;;14.93;100.00
22550;BME280;11441;57.164;-2.120;2022-09-12T07:04:24;99834.69;;;14.92;100.00
22550;BME280;11441;57.164;-2.120;2022-09-12T07:06:50;99827.50;;;14.98;100.00
22550;BME280;11441;57.164;-2.120;2022-09-12T07:09:17;99829.84;;;15.06;100.00
22550;BME280;11441;57.164;-2.120;2022-09-12T07:11:45;99828.28;;;15.05;100.00
22550;BME280;11441;57.164;-2.120;2022-09-12T07:14:13;99835.38;;;15.10;100.00
22550;BME280;11441;57.164;-2.120;2022-09-12T07:16:40;99841.28;;;15.16;100.00
22550;BME280;11441;57.164;-2.120;2022-09-12T07:19:08;99845.16;;;15.25;100.00
22550;BME280;11441;57.164;-2.120;2022-09-12T07:21:35;99843.94;;;15.30;100.00
22550;BME280;11441;57.164;-2.120;2022-09-12T07:24:06;99845.91;;;15.33;100.00
22550;BME280;11441;57.164;-2.120;2022-09-12T07:26:34;99840.00;;;15.27;100.00
22550;BME280;11441;57.164;-2.120;2022-09-12T07:29:01;99843.94;;;15.30;100.00
22550;BME280;11441;57.164;-2.120;2022-09-12T07:31:48;99845.16;;;15.25;100.00
22550;BME280;11441;57.164;-2.120;2022-09-12T07:34:15;99841.63;;;15.21;100.00
22550;BME280;11441;57.164;-2.120;2022-09-12T07:36:43;99847.94;;;15.22;100.00
22550;BME280;11441;57.164;-2.120;2022-09-12T07:39:10;99853.03;;;15.31;100.00
22550;BME280;11441;57.164;-2.120;2022-09-12T07:41:37;99852.59;;;15.36;100.00
22550;BME280;11441;57.164;-2.120;2022-09-12T07:44:04;99860.13;;;15.39;100.00
22550;BME280;11441;57.164;-2.120;2022-09-12T07:46:33;99863.28;;;15.37;100.00
22550;BME280;11441;57.164;-2.120;2022-09-12T07:49:01;99874.78;;;15.39;100.00
22550;BME280;11441;57.164;-2.120;2022-09-12T07:51:29;99858.88;;;15.47;100.00
22550;BME280;11441;57.164;-2.120;2022-09-12T07:53:56;99850.22;;;15.41;100.00
22550;BME280;11441;57.164;-2.120;2022-09-12T07:56:24;99862.38;;;15.55;100.00
22550;BME280;11441;57.164;-2.120;2022-09-12T07:58:57;99864.38;;;15.54;100.00
22550;BME280;11441;57.164;-2.120;2022-09-12T08:01:25;99864.38;;;15.54;100.00
22550;BME280;11441;57.164;-2.120;2022-09-12T08:03:54;99861.97;;;15.56;100.00
22550;BME280;11441;57.164;-2.120;2022-09-12T08:06:23;99869.50;;;15.56;100.00
22550;BME280;11441;57.164;-2.120;2022-09-12T08:08:52;99871.88;;;15.57;100.00
22550;BME280;11441;57.164;-2.120;2022-09-12T08:11:20;99873.84;;;15.57;100.00
22550;BME280;11441;57.164;-2.120;2022-09-12T08:13:48;99877.00;;;15.62;100.00
22550;BME280;11441;57.164;-2.120;2022-09-12T08:16:22;99883.31;;;15.63;100.00
22550;BME280;11441;57.164;-2.120;2022-09-12T08:18:50;99883.25;;;15.70;100.00
22550;BME280;11441;57.164;-2.120;2022-09-12T08:21:35;99889.59;;;15.78;100.00
22550;BME280;11441;57.164;-2.120;2022-09-12T08:24:04;99891.94;;;15.76;100.00
22550;BME280;11441;57.164;-2.120;2022-09-12T08:26:33;99897.81;;;15.89;100.00
22550;BME280;11441;57.164;-2.120;2022-09-12T08:29:18;99895.28;;;16.01;100.00
22550;BME280;11441;57.164;-2.120;2022-09-12T08:31:45;99908.03;;;15.99;100.00
22550;BME280;11441;57.164;-2.120;2022-09-12T08:34:12;99919.69;;;16.21;100.00
22550;BME280;11441;57.164;-2.120;2022-09-12T08:36:57;99903.38;;;16.27;100.00
22550;BME280;11441;57.164;-2.120;2022-09-12T08:39:24;99918.75;;;16.35;100.00
22550;BME280;11441;57.164;-2.120;2022-09-12T08:42:01;99915.81;;;16.53;100.00
22550;BME280;11441;57.164;-2.120;2022-09-12T08:49:38;99938.78;;;15.70;100.00
22550;BME280;11441;57.164;-2.120;2022-09-12T08:52:28;99948.03;;;15.49;100.00
22550;BME280;11441;57.164;-2.120;2022-09-12T08:54:56;99948.19;;;15.20;100.00
22550;BME280;11441;57.164;-2.120;2022-09-12T08:57:23;99945.19;;;14.93;100.00
22550;BME280;11441;57.164;-2.120;2022-09-12T08:59:50;99938.41;;;14.98;100.00
22550;BME280;11441;57.164;-2.120;2022-09-12T09:02:51;99949.50;;;14.98;100.00
22550;BME280;11441;57.164;-2.120;2022-09-12T09:13:53;99948.75;;;14.94;100.00
22550;BME280;11441;57.164;-2.120;2022-09-12T09:16:45;99941.94;;;15.09;100.00
22550;BME280;11441;57.164;-2.120;2022-09-12T09:19:28;99952.28;;;15.05;100.00
22550;BME280;11441;57.164;-2.120;2022-09-12T09:24:41;99959.38;;;15.06;100.00
22550;BME280;11441;57.164;-2.120;2022-09-12T09:30:18;99965.69;;;15.17;100.00
22550;BME280;11441;57.164;-2.120;2022-09-12T09:32:53;99960.75;;;15.46;100.00
22550;BME280;11441;57.164;-2.120;2022-09-12T09:35:42;99965.91;;;15.44;100.00
22550;BME280;11441;57.164;-2.120;2022-09-12T09:38:21;99973.47;;;15.40;100.00
22550;BME280;11441;57.164;-2.120;2022-09-12T09:43:23;99981.31;;;15.53;100.00
22550;BME280;11441;57.164;-2.120;2022-09-12T09:45:56;99978.50;;;15.56;100.00
22550;BME280;11441;57.164;-2.120;2022-09-12T09:48:35;99987.28;;;15.51;100.00
22550;BME280;11441;57.164;-2.120;2022-09-12T09:51:25;99988.72;;;15.70;100.00
22550;BME280;11441;57.164;-2.120;2022-09-12T09:54:00;99982.56;;;16.00;100.00
22550;BME280;11441;57.164;-2.120;2022-09-12T09:56:36;99992.56;;;15.94;100.00
22550;BME280;11441;57.164;-2.120;2022-09-12T09:59:16;99993.91;;;15.68;100.00
22550;BME280;11441;57.164;-2.120;2022-09-12T10:01:48;99984.38;;;15.73;100.00
22550;BME280;11441;57.164;-2.120;2022-09-12T10:04:18;99991.88;;;15.72;100.00
22550;BME280;11441;57.164;-2.120;2022-09-12T10:06:46;99994.25;;;15.74;100.00
22550;BME280;11441;57.164;-2.120;2022-09-12T10:09:32;99992.97;;;15.93;100.00
22550;BME280;11441;57.164;-2.120;2022-09-12T10:12:23;99989.34;;;15.99;100.00
22550;BME280;11441;57.164;-2.120;2022-09-12T10:14:57;99989.25;;;16.10;100.00
22550;BME280;11441;57.164;-2.120;2022-09-12T10:17:29;99976.78;;;16.29;100.00
22550;BME280;11441;57.164;-2.120;2022-09-12T10:25:54;99974.00;;;16.29;100.00
22550;BME280;11441;57.164;-2.120;2022-09-12T10:28:27;99971.59;;;16.31;100.00
22550;BME280;11441;57.164;-2.120;2022-09-12T10:30:56;99986.56;;;16.45;100.00
22550;BME280;11441;57.164;-2.120;2022-09-12T10:33:24;99983.84;;;16.37;100.00
22550;BME280;11441;57.164;-2.120;2022-09-12T10:36:10;99978.81;;;16.63;100.00
22550;BME280;11441;57.164;-2.120;2022-09-12T10:38:37;99969.19;;;16.71;100.00
22550;BME280;11441;57.164;-2.120;2022-09-12T10:41:06;99971.19;;;16.71;100.00
22550;BME280;11441;57.164;-2.120;2022-09-12T10:43:36;99976.63;;;16.82;100.00
22550;BME280;11441;57.164;-2.120;2022-09-12T10:46:21;99975.78;;;16.88;100.00
22550;BME280;11441;57.164;-2.120;2022-09-12T10:48:50;99982.00;;;17.00;100.00
22550;BME280;11441;57.164;-2.120;2022-09-12T10:54:01;99980.28;;;17.09;100.00
22550;BME280;11441;57.164;-2.120;2022-09-12T10:56:32;99979.16;;;17.03;100.00
22550;BME280;11441;57.164;-2.120;2022-09-12T10:59:28;99976.22;;;17.18;100.00
22550;BME280;11441;57.164;-2.120;2022-09-12T11:02:08;99978.78;;;17.01;100.00
22550;BME280;11441;57.164;-2.120;2022-09-12T11:13:09;99976.63;;;16.82;100.00
22550;BME280;11441;57.164;-2.120;2022-09-12T11:15:54;99971.84;;;16.82;100.00
22550;BME280;11441;57.164;-2.120;2022-09-12T11:27:41;99983.34;;;17.19;100.00
22550;BME280;11441;57.164;-2.120;2022-09-12T11:30:13;99980.84;;;17.28;100.00
22550;BME280;11441;57.164;-2.120;2022-09-12T11:35:22;99974.88;;;17.26;100.00
22550;BME280;11441;57.164;-2.120;2022-09-12T11:38:22;99974.06;;;17.29;100.00
22550;BME280;11441;57.164;-2.120;2022-09-12T11:40:53;99972.22;;;17.19;100.00
22550;BME280;11441;57.164;-2.120;2022-09-12T11:44:00;99977.72;;;17.22;100.00
22550;BME280;11441;57.164;-2.120;2022-09-12T11:46:37;99981.25;;;17.26;100.00
22550;BME280;11441;57.164;-2.120;2022-09-12T11:49:37;99970.19;;;17.23;100.00
22550;BME280;11441;57.164;-2.120;2022-09-12T11:52:13;99977.25;;;17.27;100.00
22550;BME280;11441;57.164;-2.120;2022-09-12T11:57:46;99978.13;;;17.51;100.00
22550;BME280;11441;57.164;-2.120;2022-09-12T12:03:24;99968.22;;;17.20;100.00
22550;BME280;11441;57.164;-2.120;2022-09-12T12:08:49;99970.81;;;17.34;100.00
22550;BME280;11441;57.164;-2.120;2022-09-12T12:11:32;99974.03;;;17.60;100.00
22550;BME280;11441;57.164;-2.120;2022-09-12T12:14:22;99977.38;;;17.47;100.00
22550;BME280;11441;57.164;-2.120;2022-09-12T12:16:50;99980.78;;;17.31;100.00
22550;BME280;11441;57.164;-2.120;2022-09-12T12:21:51;99981.41;;;17.43;100.00
22550;BME280;11441;57.164;-2.120;2022-09-12T12:24:20;99985.50;;;17.34;100.00
22550;BME280;11441;57.164;-2.120;2022-09-12T12:27:02;99988.78;;;17.29;98.81
22550;BME280;11441;57.164;-2.120;2022-09-12T12:34:43;99981.16;;;17.33;100.00
22550;BME280;11441;57.164;-2.120;2022-09-12T12:40:34;99999.81;;;17.64;100.00
22550;BME280;11441;57.164;-2.120;2022-09-12T12:43:02;99990.50;;;17.74;100.00
22550;BME280;11441;57.164;-2.120;2022-09-12T12:48:17;99994.75;;;17.55;100.00
22550;BME280;11441;57.164;-2.120;2022-09-12T12:54:04;99984.28;;;17.66;100.00
22550;BME280;11441;57.164;-2.120;2022-09-12T12:57:26;99980.81;;;17.86;100.00
22550;BME280;11441;57.164;-2.120;2022-09-12T12:59:54;99990.63;;;17.67;100.00
22550;BME280;11441;57.164;-2.120;2022-09-12T13:02:47;99990.25;;;17.65;100.00
22550;BME280;11441;57.164;-2.120;2022-09-12T13:05:20;99986.63;;;17.68;100.00
22550;BME280;11441;57.164;-2.120;2022-09-12T13:08:44;99996.19;;;17.67;100.00
22550;BME280;11441;57.164;-2.120;2022-09-12T13:13:41;99999.75;;;17.40;100.00
22550;BME280;11441;57.164;-2.120;2022-09-12T13:16:11;99999.03;;;17.63;100.00
22550;BME280;11441;57.164;-2.120;2022-09-12T13:18:55;99999.50;;;17.58;100.00
22550;BME280;11441;57.164;-2.120;2022-09-12T13:24:27;99997.59;;;17.51;100.00
22550;BME280;11441;57.164;-2.120;2022-09-12T13:26:54;99993.72;;;17.45;100.00
22550;BME280;11441;57.164;-2.120;2022-09-12T13:29:25;99996.88;;;17.47;100.00
22550;BME280;11441;57.164;-2.120;2022-09-12T13:31:55;99989.50;;;17.61;100.00
22550;BME280;11441;57.164;-2.120;2022-09-12T13:34:25;99993.09;;;17.61;100.00
22550;BME280;11441;57.164;-2.120;2022-09-12T13:45:34;99991.81;;;17.66;100.00
22550;BME280;11441;57.164;-2.120;2022-09-12T13:48:05;99990.00;;;17.56;98.72
22550;BME280;11441;57.164;-2.120;2022-09-12T13:50:44;99986.53;;;17.75;95.48
22550;BME280;11441;57.164;-2.120;2022-09-12T13:53:14;99982.69;;;17.65;97.13
22550;BME280;11441;57.164;-2.120;2022-09-12T13:55:47;99985.63;;;17.82;95.25
22550;BME280;11441;57.164;-2.120;2022-09-12T13:58:34;99982.66;;;17.96;94.58
22550;BME280;11441;57.164;-2.120;2022-09-12T14:01:05;99984.59;;;17.99;91.21
22550;BME280;11441;57.164;-2.120;2022-09-12T14:03:39;99995.88;;;17.88;92.86
22550;BME280;11441;57.164;-2.120;2022-09-12T14:06:25;99996.09;;;18.01;93.15
22550;BME280;11441;57.164;-2.120;2022-09-12T14:08:54;99989.06;;;18.17;91.24
22550;BME280;11441;57.164;-2.120;2022-09-12T14:11:27;99986.72;;;18.15;89.06
22550;BME280;11441;57.164;-2.120;2022-09-12T14:13:56;99989.06;;;17.93;91.90
22550;BME280;11441;57.164;-2.120;2022-09-12T14:16:23;100007.91;;;17.82;91.36
22550;BME280;11441;57.164;-2.120;2022-09-12T14:19:13;99996.38;;;17.80;86.19
22550;BME280;11441;57.164;-2.120;2022-09-12T14:21:44;100005.66;;;17.73;95.88
22550;BME280;11441;57.164;-2.120;2022-09-12T14:24:12;99998.38;;;17.79;92.43
22550;BME280;11441;57.164;-2.120;2022-09-12T14:26:41;100001.66;;;17.47;96.30
22550;BME280;11441;57.164;-2.120;2022-09-12T14:29:27;99998.13;;;17.12;86.66
22550;BME280;11441;57.164;-2.120;2022-09-12T14:32:03;100019.41;;;17.26;93.42
22550;BME280;11441;57.164;-2.120;2022-09-12T14:34:31;99992.03;;;17.24;97.04
22550;BME280;11441;57.164;-2.120;2022-09-12T14:36:58;100004.16;;;17.38;97.87
22550;BME280;11441;57.164;-2.120;2022-09-12T14:39:44;100007.44;;;17.29;100.00
22550;BME280;11441;57.164;-2.120;2022-09-12T14:42:20;100003.28;;;17.13;100.00
22550;BME280;11441;57.164;-2.120;2022-09-12T14:44:57;100010.47;;;17.11;100.00
22550;BME280;11441;57.164;-2.120;2022-09-12T14:47:26;100016.09;;;17.07;100.00
22550;BME280;11441;57.164;-2.120;2022-09-12T14:49:56;100006.88;;;17.14;100.00
22550;BME280;11441;57.164;-2.120;2022-09-12T14:52:27;100011.34;;;17.04;100.00
22550;BME280;11441;57.164;-2.120;2022-09-12T14:57:41;100011.84;;;16.95;100.00
22550;BME280;11441;57.164;-2.120;2022-09-12T15:02:39;100009.75;;;17.07;100.00
22550;BME280;11441;57.164;-2.120;2022-09-12T15:07:53;100033.28;;;16.99;100.00
22550;BME280;11441;57.164;-2.120;2022-09-12T15:15:39;100038.16;;;16.87;100.00
22550;BME280;11441;57.164;-2.120;2022-09-12T15:18:07;100036.28;;;16.73;100.00
22550;BME280;11441;57.164;-2.120;2022-09-12T15:20:38;100032.75;;;16.69;100.00
22550;BME280;11441;57.164;-2.120;2022-09-12T15:23:33;100023.59;;;16.72;100.00
22550;BME280;11441;57.164;-2.120;2022-09-12T15:25:58;100055.16;;;16.55;100.00
22550;BME280;11441;57.164;-2.120;2022-09-12T15:28:26;100044.50;;;16.46;100.00
22550;BME280;11441;57.164;-2.120;2022-09-12T15:31:31;100061.38;;;16.66;100.00
22550;BME280;11441;57.164;-2.120;2022-09-12T15:34:00;100077.31;;;16.62;100.00
22550;BME280;11441;57.164;-2.120;2022-09-12T15:36:27;100066.16;;;16.20;100.00
22550;BME280;11441;57.164;-2.120;2022-09-12T15:38:54;100048.75;;;16.13;100.00
22550;BME280;11441;57.164;-2.120;2022-09-12T15:41:25;100047.59;;;16.07;100.00
22550;BME280;11441;57.164;-2.120;2022-09-12T15:43:55;100043.91;;;16.24;100.00